sensor_id;sensor_type;location;lat;lon;timestamp;P1;durP1;ratioP1;P2;durP2;ratioP2
3249;SDS011;1637;42.020;23.992;2023-01-23T00:00:44;91.97;;;35.33;;
3249;SDS011;1637;42.020;23.992;2023-01-23T00:03:13;83.00;;;39.80;;
3249;SDS011;1637;42.020;23.992;2023-01-23T00:05:39;87.23;;;39.37;;
3249;SDS011;1637;42.020;23.992;2023-01-23T00:08:06;83.70;;;37.03;;
3249;SDS011;1637;42.020;23.992;2023-01-23T00:10:33;93.13;;;42.47;;
3249;SDS011;1637;42.020;23.992;2023-01-23T00:13:00;89.27;;;40.27;;
3249;SDS011;1637;42.020;23.992;2023-01-23T00:15:28;81.07;;;39.40;;
3249;SDS011;1637;42.020;23.992;2023-01-23T00:17:57;76.40;;;35.27;;
3249;SDS011;1637;42.020;23.992;2023-01-23T00:20:24;83.87;;;38.00;;
3249;SDS011;1637;42.020;23.992;2023-01-23T00:22:51;87.23;;;36.50;;
3249;SDS011;1637;42.020;23.992;2023-01-23T00:25:17;80.03;;;32.97;;
3249;SDS011;1637;42.020;23.992;2023-01-23T00:27:44;72.93;;;33.60;;
3249;SDS011;1637;42.020;23.992;2023-01-23T00:30:12;65.53;;;31.40;;
3249;SDS011;1637;42.020;23.992;2023-01-23T00:32:41;63.23;;;29.30;;
3249;SDS011;1637;42.020;23.992;2023-01-23T00:35:08;63.27;;;27.87;;
3249;SDS011;1637;42.020;23.992;2023-01-23T00:37:35;54.47;;;26.90;;
3249;SDS011;1637;42.020;23.992;2023-01-23T00:40:02;44.43;;;22.73;;
3249;SDS011;1637;42.020;23.992;2023-01-23T00:42:29;33.60;;;15.90;;
3249;SDS011;1637;42.020;23.992;2023-01-23T00:44:56;35.37;;;17.57;;
3249;SDS011;1637;42.020;23.992;2023-01-23T00:47:24;33.23;;;14.27;;
3249;SDS011;1637;42.020;23.992;2023-01-23T00:49:52;40.40;;;18.60;;
3249;SDS011;1637;42.020;23.992;2023-01-23T00:52:21;35.73;;;16.70;;
3249;SDS011;1637;42.020;23.992;2023-01-23T00:54:48;29.47;;;15.00;;
3249;SDS011;1637;42.020;23.992;2023-01-23T00:57:15;47.13;;;21.20;;
3249;SDS011;1637;42.020;23.992;2023-01-23T00:59:42;64.80;;;31.20;;
3249;SDS011;1637;42.020;23.992;2023-01-23T01:02:08;64.93;;;31.77;;
3249;SDS011;1637;42.020;23.992;2023-01-23T01:04:35;68.20;;;31.90;;
3249;SDS011;1637;42.020;23.992;2023-01-23T01:07:03;72.97;;;31.53;;
3249;SDS011;1637;42.020;23.992;2023-01-23T01:09:30;75.77;;;31.80;;
3249;SDS011;1637;42.020;23.992;2023-01-23T01:11:57;71.03;;;32.30;;
3249;SDS011;1637;42.020;23.992;2023-01-23T01:14:24;68.20;;;31.27;;
3249;SDS011;1637;42.020;23.992;2023-01-23T01:16:51;77.70;;;32.50;;
3249;SDS011;1637;42.020;23.992;2023-01-23T01:19:17;67.17;;;31.20;;
3249;SDS011;1637;42.020;23.992;2023-01-23T01:21:44;61.40;;;31.07;;
3249;SDS011;1637;42.020;23.992;2023-01-23T01:24:13;66.70;;;31.07;;
3249;SDS011;1637;42.020;23.992;2023-01-23T01:26:39;63.57;;;29.27;;
3249;SDS011;1637;42.020;23.992;2023-01-23T01:29:06;65.13;;;30.63;;
3249;SDS011;1637;42.020;23.992;2023-01-23T01:31:33;70.47;;;30.33;;
3249;SDS011;1637;42.020;23.992;2023-01-23T01:34:00;72.87;;;31.67;;
3249;SDS011;1637;42.020;23.992;2023-01-23T01:36:27;68.43;;;30.23;;
3249;SDS011;1637;42.020;23.992;2023-01-23T01:38:53;69.00;;;32.13;;
3249;SDS011;1637;42.020;23.992;2023-01-23T01:41:22;66.70;;;32.13;;
3249;SDS011;1637;42.020;23.992;2023-01-23T01:43:49;83.67;;;35.37;;
3249;SDS011;1637;42.020;23.992;2023-01-23T01:46:21;79.43;;;36.87;;
3249;SDS011;1637;42.020;23.992;2023-01-23T01:48:55;79.90;;;35.47;;
3249;SDS011;1637;42.020;23.992;2023-01-23T01:51:28;77.30;;;32.80;;
3249;SDS011;1637;42.020;23.992;2023-01-23T01:54:02;70.37;;;30.30;;
3249;SDS011;1637;42.020;23.992;2023-01-23T01:56:36;93.57;;;35.83;;
3249;SDS011;1637;42.020;23.992;2023-01-23T01:59:06;102.17;;;41.23;;
3249;SDS011;1637;42.020;23.992;2023-01-23T02:01:35;80.07;;;36.87;;
3249;SDS011;1637;42.020;23.992;2023-01-23T02:04:04;97.07;;;44.00;;
3249;SDS011;1637;42.020;23.992;2023-01-23T02:06:32;85.87;;;38.10;;
3249;SDS011;1637;42.020;23.992;2023-01-23T02:09:00;77.07;;;35.07;;
3249;SDS011;1637;42.020;23.992;2023-01-23T02:11:31;102.57;;;41.90;;
3249;SDS011;1637;42.020;23.992;2023-01-23T02:13:59;116.90;;;46.63;;
3249;SDS011;1637;42.020;23.992;2023-01-23T02:16:29;143.93;;;54.67;;
3249;SDS011;1637;42.020;23.992;2023-01-23T02:19:06;110.27;;;43.00;;
3249;SDS011;1637;42.020;23.992;2023-01-23T02:21:40;84.17;;;34.83;;
3249;SDS011;1637;42.020;23.992;2023-01-23T02:24:12;63.97;;;31.93;;
3249;SDS011;1637;42.020;23.992;2023-01-23T02:26:46;51.70;;;26.73;;
3249;SDS011;1637;42.020;23.992;2023-01-23T02:29:13;62.23;;;29.77;;
3249;SDS011;1637;42.020;23.992;2023-01-23T02:31:43;56.83;;;27.37;;
3249;SDS011;1637;42.020;23.992;2023-01-23T02:34:10;41.53;;;19.70;;
3249;SDS011;1637;42.020;23.992;2023-01-23T02:36:39;56.73;;;25.07;;
3249;SDS011;1637;42.020;23.992;2023-01-23T02:39:10;50.10;;;23.90;;
3249;SDS011;1637;42.020;23.992;2023-01-23T02:41:38;58.77;;;25.03;;
3249;SDS011;1637;42.020;23.992;2023-01-23T02:44:10;62.70;;;28.83;;
3249;SDS011;1637;42.020;23.992;2023-01-23T02:46:40;69.07;;;32.87;;
3249;SDS011;1637;42.020;23.992;2023-01-23T02:49:07;61.10;;;31.83;;
3249;SDS011;1637;42.020;23.992;2023-01-23T02:51:34;61.87;;;29.60;;
3249;SDS011;1637;42.020;23.992;2023-01-23T02:54:01;52.53;;;24.90;;
3249;SDS011;1637;42.020;23.992;2023-01-23T02:56:28;42.03;;;20.43;;
3249;SDS011;1637;42.020;23.992;2023-01-23T02:58:55;38.40;;;18.30;;
3249;SDS011;1637;42.020;23.992;2023-01-23T03:01:40;38.93;;;18.53;;
3249;SDS011;1637;42.020;23.992;2023-01-23T03:04:07;46.80;;;23.80;;
3249;SDS011;1637;42.020;23.992;2023-01-23T03:06:34;39.63;;;18.37;;
3249;SDS011;1637;42.020;23.992;2023-01-23T03:09:03;38.27;;;16.33;;
3249;SDS011;1637;42.020;23.992;2023-01-23T03:11:32;40.20;;;19.03;;
3249;SDS011;1637;42.020;23.992;2023-01-23T03:14:00;43.13;;;21.10;;
3249;SDS011;1637;42.020;23.992;2023-01-23T03:16:26;41.53;;;21.90;;
3249;SDS011;1637;42.020;23.992;2023-01-23T03:18:55;55.13;;;24.70;;
3249;SDS011;1637;42.020;23.992;2023-01-23T03:21:25;10.40;;;6.57;;
3249;SDS011;1637;42.020;23.992;2023-01-23T03:23:53;11.53;;;6.70;;
3249;SDS011;1637;42.020;23.992;2023-01-23T03:26:20;12.60;;;7.20;;
3249;SDS011;1637;42.020;23.992;2023-01-23T03:28:47;24.13;;;9.60;;
3249;SDS011;1637;42.020;23.992;2023-01-23T03:31:31;33.27;;;14.20;;
3249;SDS011;1637;42.020;23.992;2023-01-23T03:34:00;39.87;;;17.47;;
3249;SDS011;1637;42.020;23.992;2023-01-23T03:36:27;23.70;;;13.27;;
3249;SDS011;1637;42.020;23.992;2023-01-23T03:38:53;34.00;;;15.40;;
3249;SDS011;1637;42.020;23.992;2023-01-23T03:41:38;24.97;;;11.50;;
3249;SDS011;1637;42.020;23.992;2023-01-23T03:44:06;19.63;;;8.63;;
3249;SDS011;1637;42.020;23.992;2023-01-23T03:46:34;25.70;;;8.20;;
3249;SDS011;1637;42.020;23.992;2023-01-23T03:49:02;13.63;;;7.60;;
3249;SDS011;1637;42.020;23.992;2023-01-23T03:51:29;8.40;;;5.40;;
3249;SDS011;1637;42.020;23.992;2023-01-23T03:53:56;11.80;;;5.60;;
3249;SDS011;1637;42.020;23.992;2023-01-23T03:56:22;10.63;;;5.30;;
3249;SDS011;1637;42.020;23.992;2023-01-23T03:58:49;8.70;;;6.00;;
3249;SDS011;1637;42.020;23.992;2023-01-23T04:01:16;13.33;;;4.90;;
3249;SDS011;1637;42.020;23.992;2023-01-23T04:03:43;10.20;;;5.50;;
3249;SDS011;1637;42.020;23.992;2023-01-23T04:06:11;12.07;;;5.20;;
3249;SDS011;1637;42.020;23.992;2023-01-23T04:08:38;9.17;;;5.43;;
3249;SDS011;1637;42.020;23.992;2023-01-23T04:11:05;15.83;;;6.03;;
3249;SDS011;1637;42.020;23.992;2023-01-23T04:13:34;12.80;;;5.87;;
3249;SDS011;1637;42.020;23.992;2023-01-23T04:16:01;8.83;;;5.73;;
3249;SDS011;1637;42.020;23.992;2023-01-23T04:18:29;16.90;;;7.83;;
3249;SDS011;1637;42.020;23.992;2023-01-23T04:20:56;19.80;;;9.87;;
3249;SDS011;1637;42.020;23.992;2023-01-23T04:23:24;17.70;;;10.10;;
3249;SDS011;1637;42.020;23.992;2023-01-23T04:25:51;26.30;;;10.87;;
3249;SDS011;1637;42.020;23.992;2023-01-23T04:28:18;14.17;;;7.70;;
3249;SDS011;1637;42.020;23.992;2023-01-23T04:30:45;12.07;;;7.77;;
3249;SDS011;1637;42.020;23.992;2023-01-23T04:33:12;23.43;;;10.50;;
3249;SDS011;1637;42.020;23.992;2023-01-23T04:35:39;14.20;;;8.47;;
3249;SDS011;1637;42.020;23.992;2023-01-23T04:38:08;17.60;;;8.33;;
3249;SDS011;1637;42.020;23.992;2023-01-23T04:40:36;18.43;;;9.33;;
3249;SDS011;1637;42.020;23.992;2023-01-23T04:43:03;19.17;;;9.77;;
3249;SDS011;1637;42.020;23.992;2023-01-23T04:45:29;27.77;;;10.73;;
3249;SDS011;1637;42.020;23.992;2023-01-23T04:47:56;22.27;;;10.77;;
3249;SDS011;1637;42.020;23.992;2023-01-23T04:50:23;34.73;;;13.73;;
3249;SDS011;1637;42.020;23.992;2023-01-23T04:52:50;30.97;;;13.93;;
3249;SDS011;1637;42.020;23.992;2023-01-23T04:55:17;30.80;;;14.50;;
3249;SDS011;1637;42.020;23.992;2023-01-23T04:57:45;38.40;;;15.43;;
3249;SDS011;1637;42.020;23.992;2023-01-23T05:00:12;28.30;;;15.20;;
3249;SDS011;1637;42.020;23.992;2023-01-23T05:02:39;32.50;;;17.00;;
3249;SDS011;1637;42.020;23.992;2023-01-23T05:05:06;34.23;;;17.20;;
3249;SDS011;1637;42.020;23.992;2023-01-23T05:07:34;48.27;;;26.60;;
3249;SDS011;1637;42.020;23.992;2023-01-23T05:10:01;48.53;;;25.57;;
3249;SDS011;1637;42.020;23.992;2023-01-23T05:12:28;40.70;;;23.33;;
3249;SDS011;1637;42.020;23.992;2023-01-23T05:14:56;25.47;;;15.00;;
3249;SDS011;1637;42.020;23.992;2023-01-23T05:17:23;24.30;;;13.67;;
3249;SDS011;1637;42.020;23.992;2023-01-23T05:19:50;21.57;;;13.63;;
3249;SDS011;1637;42.020;23.992;2023-01-23T05:22:17;24.27;;;12.40;;
3249;SDS011;1637;42.020;23.992;2023-01-23T05:24:44;21.10;;;11.73;;
3249;SDS011;1637;42.020;23.992;2023-01-23T05:27:11;20.40;;;10.80;;
3249;SDS011;1637;42.020;23.992;2023-01-23T05:29:38;23.73;;;12.63;;
3249;SDS011;1637;42.020;23.992;2023-01-23T05:32:06;21.47;;;11.37;;
3249;SDS011;1637;42.020;23.992;2023-01-23T05:34:33;22.53;;;12.63;;
3249;SDS011;1637;42.020;23.992;2023-01-23T05:37:00;21.03;;;12.50;;
3249;SDS011;1637;42.020;23.992;2023-01-23T05:39:27;30.10;;;15.13;;
3249;SDS011;1637;42.020;23.992;2023-01-23T05:41:56;25.07;;;13.33;;
3249;SDS011;1637;42.020;23.992;2023-01-23T05:44:23;40.20;;;18.37;;
3249;SDS011;1637;42.020;23.992;2023-01-23T05:46:50;31.47;;;14.60;;
3249;SDS011;1637;42.020;23.992;2023-01-23T05:49:18;22.70;;;12.80;;
3249;SDS011;1637;42.020;23.992;2023-01-23T05:51:45;60.97;;;26.83;;
3249;SDS011;1637;42.020;23.992;2023-01-23T05:54:11;29.77;;;14.97;;
3249;SDS011;1637;42.020;23.992;2023-01-23T05:56:38;30.33;;;13.87;;
3249;SDS011;1637;42.020;23.992;2023-01-23T05:59:05;26.70;;;15.10;;
3249;SDS011;1637;42.020;23.992;2023-01-23T06:01:32;42.70;;;24.80;;
3249;SDS011;1637;42.020;23.992;2023-01-23T06:03:59;48.60;;;27.93;;
3249;SDS011;1637;42.020;23.992;2023-01-23T06:06:27;54.10;;;26.50;;
3249;SDS011;1637;42.020;23.992;2023-01-23T06:08:54;50.47;;;27.23;;
3249;SDS011;1637;42.020;23.992;2023-01-23T06:11:20;76.33;;;34.33;;
3249;SDS011;1637;42.020;23.992;2023-01-23T06:13:47;72.83;;;36.80;;
3249;SDS011;1637;42.020;23.992;2023-01-23T06:16:14;63.83;;;30.03;;
3249;SDS011;1637;42.020;23.992;2023-01-23T06:18:41;65.60;;;36.37;;
3249;SDS011;1637;42.020;23.992;2023-01-23T06:21:08;60.43;;;32.17;;
3249;SDS011;1637;42.020;23.992;2023-01-23T06:23:36;68.00;;;34.90;;
3249;SDS011;1637;42.020;23.992;2023-01-23T06:26:03;63.57;;;30.33;;
3249;SDS011;1637;42.020;23.992;2023-01-23T06:28:30;52.03;;;27.50;;
3249;SDS011;1637;42.020;23.992;2023-01-23T06:30:59;58.13;;;34.33;;
3249;SDS011;1637;42.020;23.992;2023-01-23T06:33:27;91.43;;;37.00;;
3249;SDS011;1637;42.020;23.992;2023-01-23T06:35:58;85.47;;;38.00;;
3249;SDS011;1637;42.020;23.992;2023-01-23T06:38:25;69.07;;;29.27;;
3249;SDS011;1637;42.020;23.992;2023-01-23T06:40:54;92.47;;;34.90;;
3249;SDS011;1637;42.020;23.992;2023-01-23T06:43:22;55.03;;;25.80;;
3249;SDS011;1637;42.020;23.992;2023-01-23T06:45:49;57.93;;;26.77;;
3249;SDS011;1637;42.020;23.992;2023-01-23T06:48:16;26.87;;;15.00;;
3249;SDS011;1637;42.020;23.992;2023-01-23T06:50:43;41.90;;;20.90;;
3249;SDS011;1637;42.020;23.992;2023-01-23T06:53:11;46.20;;;31.17;;
3249;SDS011;1637;42.020;23.992;2023-01-23T06:55:40;35.67;;;17.70;;
3249;SDS011;1637;42.020;23.992;2023-01-23T06:58:08;28.13;;;12.93;;
3249;SDS011;1637;42.020;23.992;2023-01-23T07:00:35;25.67;;;14.80;;
3249;SDS011;1637;42.020;23.992;2023-01-23T07:03:02;39.97;;;21.37;;
3249;SDS011;1637;42.020;23.992;2023-01-23T07:05:29;32.23;;;13.80;;
3249;SDS011;1637;42.020;23.992;2023-01-23T07:07:56;213.67;;;98.63;;
3249;SDS011;1637;42.020;23.992;2023-01-23T07:10:23;101.03;;;49.77;;
3249;SDS011;1637;42.020;23.992;2023-01-23T07:12:51;69.37;;;30.33;;
3249;SDS011;1637;42.020;23.992;2023-01-23T07:15:19;60.73;;;28.87;;
3249;SDS011;1637;42.020;23.992;2023-01-23T07:17:46;62.47;;;29.90;;
3249;SDS011;1637;42.020;23.992;2023-01-23T07:20:12;57.43;;;27.00;;
3249;SDS011;1637;42.020;23.992;2023-01-23T07:22:40;69.83;;;32.73;;
3249;SDS011;1637;42.020;23.992;2023-01-23T07:25:07;90.10;;;41.13;;
3249;SDS011;1637;42.020;23.992;2023-01-23T07:27:34;74.73;;;36.50;;
3249;SDS011;1637;42.020;23.992;2023-01-23T07:30:01;100.37;;;44.77;;
3249;SDS011;1637;42.020;23.992;2023-01-23T07:32:29;128.97;;;53.10;;
3249;SDS011;1637;42.020;23.992;2023-01-23T07:34:56;186.87;;;82.73;;
3249;SDS011;1637;42.020;23.992;2023-01-23T07:37:23;96.17;;;41.57;;
3249;SDS011;1637;42.020;23.992;2023-01-23T07:39:50;49.00;;;24.10;;
3249;SDS011;1637;42.020;23.992;2023-01-23T07:42:17;83.37;;;38.53;;
3249;SDS011;1637;42.020;23.992;2023-01-23T07:44:44;76.10;;;35.80;;
3249;SDS011;1637;42.020;23.992;2023-01-23T07:47:11;83.80;;;35.23;;
3249;SDS011;1637;42.020;23.992;2023-01-23T07:49:39;79.73;;;37.23;;
3249;SDS011;1637;42.020;23.992;2023-01-23T07:52:06;83.03;;;32.87;;
3249;SDS011;1637;42.020;23.992;2023-01-23T07:54:33;77.43;;;34.27;;
3249;SDS011;1637;42.020;23.992;2023-01-23T07:57:00;76.60;;;34.60;;
3249;SDS011;1637;42.020;23.992;2023-01-23T07:59:27;72.07;;;34.50;;
3249;SDS011;1637;42.020;23.992;2023-01-23T08:01:54;151.83;;;56.87;;
3249;SDS011;1637;42.020;23.992;2023-01-23T08:04:21;178.07;;;70.83;;
3249;SDS011;1637;42.020;23.992;2023-01-23T08:06:49;162.80;;;70.47;;
3249;SDS011;1637;42.020;23.992;2023-01-23T08:09:16;121.60;;;55.80;;
3249;SDS011;1637;42.020;23.992;2023-01-23T08:11:42;116.17;;;64.60;;
3249;SDS011;1637;42.020;23.992;2023-01-23T08:14:09;77.73;;;33.90;;
3249;SDS011;1637;42.020;23.992;2023-01-23T08:16:36;71.03;;;33.70;;
3249;SDS011;1637;42.020;23.992;2023-01-23T08:19:05;65.63;;;31.73;;
3249;SDS011;1637;42.020;23.992;2023-01-23T08:21:32;64.23;;;31.13;;
3249;SDS011;1637;42.020;23.992;2023-01-23T08:24:01;43.33;;;23.73;;
3249;SDS011;1637;42.020;23.992;2023-01-23T08:26:30;58.57;;;28.73;;
3249;SDS011;1637;42.020;23.992;2023-01-23T08:28:57;52.07;;;25.30;;
3249;SDS011;1637;42.020;23.992;2023-01-23T08:31:25;51.97;;;25.47;;
3249;SDS011;1637;42.020;23.992;2023-01-23T08:33:52;43.17;;;25.47;;
3249;SDS011;1637;42.020;23.992;2023-01-23T08:36:19;31.63;;;16.97;;
3249;SDS011;1637;42.020;23.992;2023-01-23T08:38:46;36.43;;;19.30;;
3249;SDS011;1637;42.020;23.992;2023-01-23T08:41:15;36.57;;;20.63;;
3249;SDS011;1637;42.020;23.992;2023-01-23T08:43:41;37.23;;;21.33;;
3249;SDS011;1637;42.020;23.992;2023-01-23T08:46:09;44.20;;;22.60;;
3249;SDS011;1637;42.020;23.992;2023-01-23T08:48:36;56.63;;;26.40;;
3249;SDS011;1637;42.020;23.992;2023-01-23T08:51:04;70.53;;;34.97;;
3249;SDS011;1637;42.020;23.992;2023-01-23T08:53:33;59.13;;;28.93;;
3249;SDS011;1637;42.020;23.992;2023-01-23T08:56:01;64.17;;;31.40;;
3249;SDS011;1637;42.020;23.992;2023-01-23T08:58:31;59.67;;;28.70;;
3249;SDS011;1637;42.020;23.992;2023-01-23T09:00:59;68.57;;;33.07;;
3249;SDS011;1637;42.020;23.992;2023-01-23T09:03:26;41.80;;;21.90;;
3249;SDS011;1637;42.020;23.992;2023-01-23T09:05:53;67.17;;;26.40;;
3249;SDS011;1637;42.020;23.992;2023-01-23T09:08:20;59.87;;;31.47;;
3249;SDS011;1637;42.020;23.992;2023-01-23T09:10:46;63.53;;;28.87;;
3249;SDS011;1637;42.020;23.992;2023-01-23T09:13:13;51.10;;;28.27;;
3249;SDS011;1637;42.020;23.992;2023-01-23T09:15:41;52.33;;;25.60;;
3249;SDS011;1637;42.020;23.992;2023-01-23T09:18:08;70.00;;;34.20;;
3249;SDS011;1637;42.020;23.992;2023-01-23T09:20:36;64.63;;;31.97;;
3249;SDS011;1637;42.020;23.992;2023-01-23T09:23:03;68.60;;;34.83;;
3249;SDS011;1637;42.020;23.992;2023-01-23T09:25:30;86.07;;;52.47;;
3249;SDS011;1637;42.020;23.992;2023-01-23T09:27:57;61.27;;;33.73;;
3249;SDS011;1637;42.020;23.992;2023-01-23T09:30:24;109.93;;;50.80;;
3249;SDS011;1637;42.020;23.992;2023-01-23T09:32:53;85.20;;;37.80;;
3249;SDS011;1637;42.020;23.992;2023-01-23T09:35:19;54.40;;;28.83;;
3249;SDS011;1637;42.020;23.992;2023-01-23T09:37:47;36.40;;;19.00;;
3249;SDS011;1637;42.020;23.992;2023-01-23T09:40:27;54.20;;;27.90;;
3249;SDS011;1637;42.020;23.992;2023-01-23T09:42:57;37.57;;;20.27;;
3249;SDS011;1637;42.020;23.992;2023-01-23T09:45:28;38.83;;;20.70;;
3249;SDS011;1637;42.020;23.992;2023-01-23T09:48:01;51.43;;;27.13;;
3249;SDS011;1637;42.020;23.992;2023-01-23T09:50:43;64.67;;;31.67;;
3249;SDS011;1637;42.020;23.992;2023-01-23T09:53:20;60.53;;;30.50;;
3249;SDS011;1637;42.020;23.992;2023-01-23T09:55:52;47.23;;;25.27;;
3249;SDS011;1637;42.020;23.992;2023-01-23T09:58:26;43.83;;;22.70;;
3249;SDS011;1637;42.020;23.992;2023-01-23T10:00:56;45.43;;;24.50;;
3249;SDS011;1637;42.020;23.992;2023-01-23T10:03:25;44.27;;;25.17;;
3249;SDS011;1637;42.020;23.992;2023-01-23T10:06:00;35.40;;;21.23;;
3249;SDS011;1637;42.020;23.992;2023-01-23T10:08:37;38.97;;;20.83;;
3249;SDS011;1637;42.020;23.992;2023-01-23T10:11:14;49.93;;;24.60;;
3249;SDS011;1637;42.020;23.992;2023-01-23T10:13:50;44.37;;;23.37;;
3249;SDS011;1637;42.020;23.992;2023-01-23T10:16:50;42.47;;;23.57;;
3249;SDS011;1637;42.020;23.992;2023-01-23T10:19:33;42.93;;;24.70;;
3249;SDS011;1637;42.020;23.992;2023-01-23T10:22:08;38.17;;;22.30;;
3249;SDS011;1637;42.020;23.992;2023-01-23T10:24:48;45.73;;;24.27;;
3249;SDS011;1637;42.020;23.992;2023-01-23T10:27:18;28.80;;;16.73;;
3249;SDS011;1637;42.020;23.992;2023-01-23T10:29:47;29.87;;;18.00;;
3249;SDS011;1637;42.020;23.992;2023-01-23T10:32:21;26.50;;;15.70;;
3249;SDS011;1637;42.020;23.992;2023-01-23T10:34:59;27.87;;;15.60;;
3249;SDS011;1637;42.020;23.992;2023-01-23T10:37:36;26.00;;;14.40;;
3249;SDS011;1637;42.020;23.992;2023-01-23T10:40:10;34.80;;;16.73;;
3249;SDS011;1637;42.020;23.992;2023-01-23T10:42:39;58.20;;;25.07;;
3249;SDS011;1637;42.020;23.992;2023-01-23T10:45:10;32.00;;;19.47;;
3249;SDS011;1637;42.020;23.992;2023-01-23T10:47:43;31.00;;;17.23;;
3249;SDS011;1637;42.020;23.992;2023-01-23T10:50:13;34.83;;;17.20;;
3249;SDS011;1637;42.020;23.992;2023-01-23T10:52:41;37.63;;;20.60;;
3249;SDS011;1637;42.020;23.992;2023-01-23T10:55:25;53.43;;;26.33;;
3249;SDS011;1637;42.020;23.992;2023-01-23T10:57:55;45.50;;;21.33;;
3249;SDS011;1637;42.020;23.992;2023-01-23T11:00:23;46.93;;;23.00;;
3249;SDS011;1637;42.020;23.992;2023-01-23T11:02:55;32.20;;;17.40;;
3249;SDS011;1637;42.020;23.992;2023-01-23T11:05:36;46.00;;;28.07;;
3249;SDS011;1637;42.020;23.992;2023-01-23T11:08:20;67.30;;;25.90;;
3249;SDS011;1637;42.020;23.992;2023-01-23T11:10:48;55.17;;;28.27;;
3249;SDS011;1637;42.020;23.992;2023-01-23T11:13:20;55.67;;;28.93;;
3249;SDS011;1637;42.020;23.992;2023-01-23T11:15:52;105.60;;;49.90;;
3249;SDS011;1637;42.020;23.992;2023-01-23T11:21:09;47.43;;;22.87;;
3249;SDS011;1637;42.020;23.992;2023-01-23T11:23:46;67.63;;;31.93;;
3249;SDS011;1637;42.020;23.992;2023-01-23T11:28:57;30.23;;;15.50;;
3249;SDS011;1637;42.020;23.992;2023-01-23T11:31:24;43.00;;;19.87;;
3249;SDS011;1637;42.020;23.992;2023-01-23T11:33:54;35.87;;;18.10;;
3249;SDS011;1637;42.020;23.992;2023-01-23T11:36:30;83.07;;;46.27;;
3249;SDS011;1637;42.020;23.992;2023-01-23T11:39:08;49.80;;;33.87;;
3249;SDS011;1637;42.020;23.992;2023-01-23T11:41:44;43.60;;;20.77;;
3249;SDS011;1637;42.020;23.992;2023-01-23T11:44:12;47.00;;;22.40;;
3249;SDS011;1637;42.020;23.992;2023-01-23T11:49:45;38.10;;;17.90;;
3249;SDS011;1637;42.020;23.992;2023-01-23T11:52:26;35.60;;;17.67;;
3249;SDS011;1637;42.020;23.992;2023-01-23T11:55:05;49.10;;;27.90;;
3249;SDS011;1637;42.020;23.992;2023-01-23T11:57:54;54.13;;;28.97;;
3249;SDS011;1637;42.020;23.992;2023-01-23T12:00:31;28.70;;;15.10;;
3249;SDS011;1637;42.020;23.992;2023-01-23T12:06:15;19.47;;;12.07;;
3249;SDS011;1637;42.020;23.992;2023-01-23T12:08:57;44.80;;;28.50;;
3249;SDS011;1637;42.020;23.992;2023-01-23T12:11:32;36.20;;;18.57;;
3249;SDS011;1637;42.020;23.992;2023-01-23T12:14:04;37.10;;;17.60;;
3249;SDS011;1637;42.020;23.992;2023-01-23T12:16:43;34.93;;;19.43;;
3249;SDS011;1637;42.020;23.992;2023-01-23T12:19:26;39.17;;;18.33;;
3249;SDS011;1637;42.020;23.992;2023-01-23T12:22:07;78.23;;;41.77;;
3249;SDS011;1637;42.020;23.992;2023-01-23T12:24:46;74.73;;;36.20;;
3249;SDS011;1637;42.020;23.992;2023-01-23T12:27:25;51.60;;;26.80;;
3249;SDS011;1637;42.020;23.992;2023-01-23T12:30:10;50.73;;;25.90;;
3249;SDS011;1637;42.020;23.992;2023-01-23T12:32:55;159.10;;;95.37;;
3249;SDS011;1637;42.020;23.992;2023-01-23T12:35:39;111.13;;;53.17;;
3249;SDS011;1637;42.020;23.992;2023-01-23T12:38:20;66.13;;;32.23;;
3249;SDS011;1637;42.020;23.992;2023-01-23T12:40:55;98.83;;;40.93;;
3249;SDS011;1637;42.020;23.992;2023-01-23T12:43:35;37.03;;;17.90;;
3249;SDS011;1637;42.020;23.992;2023-01-23T12:46:09;94.57;;;44.77;;
3249;SDS011;1637;42.020;23.992;2023-01-23T12:48:40;74.73;;;37.43;;
3249;SDS011;1637;42.020;23.992;2023-01-23T12:51:14;39.50;;;18.60;;
3249;SDS011;1637;42.020;23.992;2023-01-23T12:53:45;40.23;;;18.37;;
3249;SDS011;1637;42.020;23.992;2023-01-23T12:56:18;46.27;;;24.13;;
3249;SDS011;1637;42.020;23.992;2023-01-23T12:58:50;46.90;;;26.33;;
3249;SDS011;1637;42.020;23.992;2023-01-23T13:01:26;28.23;;;14.87;;
3249;SDS011;1637;42.020;23.992;2023-01-23T13:04:07;37.97;;;18.73;;
3249;SDS011;1637;42.020;23.992;2023-01-23T13:09:49;34.57;;;16.00;;
3249;SDS011;1637;42.020;23.992;2023-01-23T13:12:37;29.93;;;15.80;;
3249;SDS011;1637;42.020;23.992;2023-01-23T13:15:20;27.20;;;13.40;;
3249;SDS011;1637;42.020;23.992;2023-01-23T13:17:49;30.83;;;14.33;;
3249;SDS011;1637;42.020;23.992;2023-01-23T13:20:27;18.67;;;9.33;;
3249;SDS011;1637;42.020;23.992;2023-01-23T13:23:25;37.13;;;19.87;;
3249;SDS011;1637;42.020;23.992;2023-01-23T13:28:58;28.63;;;14.93;;
3249;SDS011;1637;42.020;23.992;2023-01-23T13:31:35;36.83;;;17.93;;
3249;SDS011;1637;42.020;23.992;2023-01-23T13:34:32;25.13;;;11.67;;
3249;SDS011;1637;42.020;23.992;2023-01-23T13:40:01;19.33;;;10.10;;
3249;SDS011;1637;42.020;23.992;2023-01-23T13:42:39;16.20;;;9.17;;
3249;SDS011;1637;42.020;23.992;2023-01-23T13:45:20;17.47;;;8.97;;
3249;SDS011;1637;42.020;23.992;2023-01-23T13:48:04;34.03;;;15.77;;
3249;SDS011;1637;42.020;23.992;2023-01-23T13:51:15;28.60;;;14.63;;
3249;SDS011;1637;42.020;23.992;2023-01-23T13:53:45;35.80;;;19.20;;
3249;SDS011;1637;42.020;23.992;2023-01-23T13:56:30;29.53;;;13.57;;
3249;SDS011;1637;42.020;23.992;2023-01-23T13:59:05;39.70;;;20.17;;
3249;SDS011;1637;42.020;23.992;2023-01-23T14:01:42;35.20;;;17.70;;
3249;SDS011;1637;42.020;23.992;2023-01-23T14:04:31;53.07;;;25.73;;
3249;SDS011;1637;42.020;23.992;2023-01-23T14:07:21;65.70;;;29.30;;
3249;SDS011;1637;42.020;23.992;2023-01-23T14:13:03;96.50;;;49.47;;
3249;SDS011;1637;42.020;23.992;2023-01-23T14:15:31;118.03;;;66.37;;
3249;SDS011;1637;42.020;23.992;2023-01-23T14:18:21;68.53;;;32.83;;
3249;SDS011;1637;42.020;23.992;2023-01-23T14:20:58;44.57;;;25.70;;
3249;SDS011;1637;42.020;23.992;2023-01-23T14:23:31;35.30;;;19.23;;
3249;SDS011;1637;42.020;23.992;2023-01-23T14:26:01;32.47;;;16.33;;
3249;SDS011;1637;42.020;23.992;2023-01-23T14:28:29;46.67;;;25.90;;
3249;SDS011;1637;42.020;23.992;2023-01-23T14:30:57;54.20;;;29.60;;
3249;SDS011;1637;42.020;23.992;2023-01-23T14:33:27;53.10;;;30.67;;
3249;SDS011;1637;42.020;23.992;2023-01-23T14:36:04;52.97;;;29.07;;
3249;SDS011;1637;42.020;23.992;2023-01-23T14:38:31;49.33;;;27.27;;
3249;SDS011;1637;42.020;23.992;2023-01-23T14:41:02;68.03;;;37.10;;
3249;SDS011;1637;42.020;23.992;2023-01-23T14:43:31;94.60;;;42.70;;
3249;SDS011;1637;42.020;23.992;2023-01-23T14:46:00;143.10;;;71.23;;
3249;SDS011;1637;42.020;23.992;2023-01-23T14:48:32;95.00;;;51.50;;
3249;SDS011;1637;42.020;23.992;2023-01-23T14:51:05;70.83;;;40.77;;
3249;SDS011;1637;42.020;23.992;2023-01-23T14:53:37;101.77;;;51.37;;
3249;SDS011;1637;42.020;23.992;2023-01-23T14:56:06;104.43;;;52.30;;
3249;SDS011;1637;42.020;23.992;2023-01-23T14:58:35;52.90;;;30.90;;
3249;SDS011;1637;42.020;23.992;2023-01-23T15:01:03;53.00;;;29.00;;
3249;SDS011;1637;42.020;23.992;2023-01-23T15:03:35;53.43;;;28.70;;
3249;SDS011;1637;42.020;23.992;2023-01-23T15:06:05;30.27;;;16.73;;
3249;SDS011;1637;42.020;23.992;2023-01-23T15:08:35;22.27;;;12.07;;
3249;SDS011;1637;42.020;23.992;2023-01-23T15:11:02;31.40;;;17.70;;
3249;SDS011;1637;42.020;23.992;2023-01-23T15:13:33;46.77;;;25.20;;
3249;SDS011;1637;42.020;23.992;2023-01-23T15:16:03;53.73;;;28.30;;
3249;SDS011;1637;42.020;23.992;2023-01-23T15:18:32;33.00;;;19.10;;